createdAt,value
2023-03-07T00:00:46.562Z,988.35
2023-03-07T00:01:46.578Z,988.30
2023-03-07T00:02:46.606Z,988.31
2023-03-07T00:03:46.604Z,988.29
2023-03-07T00:04:46.545Z,988.22
2023-03-07T00:05:47.527Z,988.25
2023-03-07T00:06:46.473Z,988.22
2023-03-07T00:07:46.500Z,988.30
2023-03-07T00:08:46.476Z,988.24
2023-03-07T00:09:47.461Z,988.25
2023-03-07T00:10:47.516Z,988.14
2023-03-07T00:11:47.417Z,988.25
2023-03-07T00:12:46.410Z,988.18
2023-03-07T00:13:46.404Z,988.18
2023-03-07T00:14:46.405Z,988.16
2023-03-07T00:15:46.412Z,988.17
2023-03-07T00:16:46.411Z,988.12
2023-03-07T00:17:47.395Z,988.16
2023-03-07T00:18:46.359Z,988.09
2023-03-07T00:19:46.341Z,988.09
2023-03-07T00:20:46.358Z,988.09
2023-03-07T00:21:46.329Z,988.12
2023-03-07T00:22:46.308Z,988.14
2023-03-07T00:23:46.327Z,988.15
2023-03-07T00:24:46.294Z,988.16
2023-03-07T00:25:46.333Z,988.12
2023-03-07T00:26:46.301Z,988.04
2023-03-07T00:27:46.237Z,988.13
2023-03-07T00:28:47.259Z,988.11
2023-03-07T00:29:47.226Z,988.14
2023-03-07T00:30:46.254Z,988.11
2023-03-07T00:31:46.340Z,988.11
2023-03-07T00:32:46.214Z,988.07
2023-03-07T00:33:46.187Z,988.07
2023-03-07T00:34:47.196Z,988.00
2023-03-07T00:35:46.276Z,987.97
2023-03-07T00:36:47.153Z,987.99
2023-03-07T00:37:46.142Z,987.90
2023-03-07T00:38:46.156Z,987.90
2023-03-07T00:39:46.175Z,987.93
2023-03-07T00:40:46.110Z,987.89
2023-03-07T00:41:46.165Z,987.84
2023-03-07T00:42:46.104Z,987.83
2023-03-07T00:43:47.222Z,987.80
2023-03-07T00:44:46.082Z,987.85
2023-03-07T00:45:46.131Z,987.76
2023-03-07T00:46:46.063Z,987.75
2023-03-07T00:47:46.065Z,987.76
2023-03-07T00:48:47.043Z,987.79
2023-03-07T00:49:47.058Z,987.67
2023-03-07T00:50:46.008Z,987.61
2023-03-07T00:51:45.998Z,987.68
2023-03-07T00:52:45.975Z,987.64
2023-03-07T00:53:45.983Z,987.63
2023-03-07T00:54:46.976Z,987.65
2023-03-07T00:55:46.039Z,987.66
2023-03-07T00:56:45.945Z,987.62
2023-03-07T00:57:45.940Z,987.58
2023-03-07T00:58:45.980Z,987.57
2023-03-07T00:59:45.900Z,987.55
2023-03-07T01:00:45.893Z,987.53
2023-03-07T01:01:45.898Z,987.53
2023-03-07T01:02:45.886Z,987.49
2023-03-07T01:03:45.925Z,987.45
2023-03-07T01:04:45.838Z,987.38
2023-03-07T01:05:45.835Z,987.48
2023-03-07T01:06:46.854Z,987.36
2023-03-07T01:07:45.837Z,987.34
2023-03-07T01:08:46.844Z,987.29
2023-03-07T01:09:46.788Z,987.36
2023-03-07T01:10:45.784Z,987.34
2023-03-07T01:11:45.820Z,987.36
2023-03-07T01:12:45.778Z,987.29
2023-03-07T01:13:45.777Z,987.34
2023-03-07T01:14:45.774Z,987.27
2023-03-07T01:15:45.730Z,987.26
2023-03-07T01:16:45.755Z,987.33
2023-03-07T01:17:45.740Z,987.24
2023-03-07T01:18:45.712Z,987.26
2023-03-07T01:19:45.723Z,987.20
2023-03-07T01:20:45.707Z,987.21
2023-03-07T01:21:45.665Z,987.22
2023-03-07T01:22:45.680Z,987.13
2023-03-07T01:23:45.639Z,987.14
2023-03-07T01:24:45.676Z,987.10
2023-03-07T01:25:45.635Z,987.08
2023-03-07T01:26:46.612Z,987.07
2023-03-07T01:27:46.648Z,987.08
2023-03-07T01:28:45.662Z,987.10
2023-03-07T01:29:45.578Z,987.05
2023-03-07T01:30:45.640Z,987.03
2023-03-07T01:31:45.584Z,986.98
2023-03-07T01:32:45.604Z,987.01
2023-03-07T01:33:45.535Z,987.01
2023-03-07T01:34:45.524Z,986.94
2023-03-07T01:35:45.570Z,986.98
2023-03-07T01:36:45.597Z,986.99
2023-03-07T01:37:46.482Z,986.94
2023-03-07T01:38:45.538Z,986.90
2023-03-07T01:39:45.473Z,986.93
2023-03-07T01:40:45.491Z,986.88
2023-03-07T01:41:45.474Z,986.89
2023-03-07T01:42:45.441Z,986.80
2023-03-07T01:43:46.467Z,986.82
2023-03-07T01:44:45.416Z,986.76
2023-03-07T01:45:45.425Z,986.81
2023-03-07T01:46:45.405Z,986.71
2023-03-07T01:47:45.380Z,986.81
2023-03-07T01:48:46.410Z,986.73
2023-03-07T01:49:46.464Z,986.72
2023-03-07T01:50:45.353Z,986.71
2023-03-07T01:51:45.461Z,986.72
2023-03-07T01:52:45.364Z,986.62
2023-03-07T01:53:46.326Z,986.58
2023-03-07T01:54:46.296Z,986.62
2023-03-07T01:55:45.319Z,986.62
2023-03-07T01:56:45.273Z,986.60
2023-03-07T01:57:45.273Z,986.54
2023-03-07T01:58:45.297Z,986.55
2023-03-07T01:59:45.266Z,986.56
2023-03-07T02:00:45.259Z,986.51
2023-03-07T02:01:45.212Z,986.50
2023-03-07T02:02:45.212Z,986.47
2023-03-07T02:03:45.200Z,986.48
2023-03-07T02:04:46.258Z,986.50
2023-03-07T02:05:45.181Z,986.50
2023-03-07T02:06:45.199Z,986.42
2023-03-07T02:07:45.216Z,986.42
2023-03-07T02:08:45.148Z,986.40
2023-03-07T02:09:45.144Z,986.40
2023-03-07T02:10:45.152Z,986.39
2023-03-07T02:11:45.160Z,986.34
2023-03-07T02:12:45.127Z,986.31
2023-03-07T02:13:45.097Z,986.29
2023-03-07T02:14:45.076Z,986.30
2023-03-07T02:15:45.122Z,986.31
2023-03-07T02:16:45.090Z,986.24
2023-03-07T02:17:45.056Z,986.29
2023-03-07T02:18:45.069Z,986.28
2023-03-07T02:19:45.123Z,986.25
2023-03-07T02:20:45.025Z,986.13
2023-03-07T02:21:45.025Z,986.19
2023-03-07T02:22:46.002Z,986.10
2023-03-07T02:23:44.990Z,986.08
2023-03-07T02:24:44.998Z,986.11
2023-03-07T02:25:44.962Z,986.03
2023-03-07T02:26:45.962Z,986.06
2023-03-07T02:27:44.961Z,986.07
2023-03-07T02:28:45.915Z,986.02
2023-03-07T02:29:44.937Z,985.99
2023-03-07T02:30:44.987Z,985.98
2023-03-07T02:31:44.910Z,985.99
2023-03-07T02:32:44.883Z,985.96
2023-03-07T02:33:44.901Z,985.95
2023-03-07T02:34:44.893Z,985.99
2023-03-07T02:35:44.878Z,985.95
2023-03-07T02:36:44.829Z,985.93
2023-03-07T02:37:45.849Z,985.91
2023-03-07T02:38:45.820Z,985.91
2023-03-07T02:39:45.827Z,985.88
2023-03-07T02:40:44.815Z,985.90
2023-03-07T02:41:45.802Z,985.87
2023-03-07T02:42:45.796Z,985.86
2023-03-07T02:43:44.774Z,985.81
2023-03-07T02:44:44.755Z,985.76
2023-03-07T02:45:44.745Z,985.72
2023-03-07T02:46:44.779Z,985.82
2023-03-07T02:47:45.730Z,985.75
2023-03-07T02:48:44.716Z,985.77
2023-03-07T02:49:44.700Z,985.69
2023-03-07T02:50:44.706Z,985.61
2023-03-07T02:51:44.725Z,985.59
2023-03-07T02:52:44.685Z,985.65
2023-03-07T02:53:44.671Z,985.69
2023-03-07T02:54:44.665Z,985.62
2023-03-07T02:55:44.645Z,985.58
2023-03-07T02:56:44.633Z,985.59
2023-03-07T02:57:44.610Z,985.56
2023-03-07T02:58:44.650Z,985.53
2023-03-07T02:59:44.596Z,985.53
2023-03-07T03:00:44.606Z,985.49
2023-03-07T03:01:44.602Z,985.51
2023-03-07T03:02:44.562Z,985.51
2023-03-07T03:03:44.598Z,985.47
2023-03-07T03:04:44.663Z,985.47
2023-03-07T03:05:44.550Z,985.39
2023-03-07T03:06:45.566Z,985.35
2023-03-07T03:07:44.517Z,985.33
2023-03-07T03:08:45.516Z,985.41
2023-03-07T03:09:44.525Z,985.36
2023-03-07T03:10:44.522Z,985.29
2023-03-07T03:11:44.514Z,985.27
2023-03-07T03:12:45.486Z,985.33
2023-03-07T03:13:44.440Z,985.29
2023-03-07T03:14:44.450Z,985.24
2023-03-07T03:15:44.459Z,985.24
2023-03-07T03:16:45.402Z,985.21
2023-03-07T03:17:44.412Z,985.19
2023-03-07T03:18:44.465Z,985.20
2023-03-07T03:19:45.394Z,985.19
2023-03-07T03:20:44.417Z,985.06
2023-03-07T03:21:44.380Z,985.07
2023-03-07T03:22:44.366Z,985.08
2023-03-07T03:23:45.352Z,985.15
2023-03-07T03:24:44.343Z,985.05
2023-03-07T03:25:44.334Z,985.08
2023-03-07T03:26:44.318Z,985.11
2023-03-07T03:27:44.309Z,985.06
2023-03-07T03:28:44.301Z,985.09
2023-03-07T03:29:44.295Z,985.07
2023-03-07T03:30:44.273Z,985.04
2023-03-07T03:31:45.248Z,985.01
2023-03-07T03:32:45.249Z,985.04
2023-03-07T03:33:45.229Z,985.08
2023-03-07T03:34:44.256Z,985.08
2023-03-07T03:35:44.275Z,985.08
2023-03-07T03:36:44.185Z,985.10
2023-03-07T03:37:44.208Z,985.04
2023-03-07T03:38:44.173Z,985.06
2023-03-07T03:39:45.192Z,985.10
2023-03-07T03:40:44.167Z,984.95
2023-03-07T03:41:44.175Z,985.08
2023-03-07T03:42:44.152Z,984.97
2023-03-07T03:43:44.116Z,984.96
2023-03-07T03:44:44.111Z,985.02
2023-03-07T03:45:45.094Z,985.08
2023-03-07T03:46:44.125Z,985.03
2023-03-07T03:47:44.125Z,985.03
2023-03-07T03:48:44.056Z,984.95
2023-03-07T03:49:44.094Z,984.93
2023-03-07T03:50:45.032Z,984.95
2023-03-07T03:51:44.034Z,984.95
2023-03-07T03:52:44.006Z,984.84
2023-03-07T03:53:44.010Z,984.88
2023-03-07T03:54:44.062Z,984.86
2023-03-07T03:55:44.004Z,984.77
2023-03-07T03:56:45.004Z,984.82
2023-03-07T03:57:43.975Z,984.77
2023-03-07T03:58:44.007Z,984.71
2023-03-07T03:59:43.968Z,984.76
2023-03-07T04:00:43.946Z,984.76
2023-03-07T04:01:44.122Z,984.69
2023-03-07T04:02:44.116Z,984.71
2023-03-07T04:03:44.913Z,984.71
2023-03-07T04:04:43.925Z,984.67
2023-03-07T04:05:43.876Z,984.69
2023-03-07T04:06:43.870Z,984.64
2023-03-07T04:07:43.875Z,984.66
2023-03-07T04:08:43.846Z,984.66
2023-03-07T04:09:43.816Z,984.65
2023-03-07T04:10:44.823Z,984.64
2023-03-07T04:11:43.870Z,984.65
2023-03-07T04:12:43.801Z,984.60
2023-03-07T04:13:44.788Z,984.51
2023-03-07T04:14:43.782Z,984.49
2023-03-07T04:15:43.781Z,984.49
2023-03-07T04:16:43.850Z,984.44
2023-03-07T04:17:43.741Z,984.47
2023-03-07T04:18:43.742Z,984.43
2023-03-07T04:19:43.725Z,984.44
2023-03-07T04:20:43.733Z,984.35
2023-03-07T04:21:43.712Z,984.44
2023-03-07T04:22:43.739Z,984.39
2023-03-07T04:23:44.710Z,984.29
2023-03-07T04:24:43.674Z,984.30
2023-03-07T04:25:43.697Z,984.30
2023-03-07T04:26:43.686Z,984.22
2023-03-07T04:27:43.646Z,984.23
2023-03-07T04:28:43.661Z,984.18
2023-03-07T04:29:43.665Z,984.14
2023-03-07T04:30:43.622Z,984.16
2023-03-07T04:31:44.780Z,984.14
2023-03-07T04:32:44.635Z,984.15
2023-03-07T04:33:43.583Z,984.14
2023-03-07T04:34:43.560Z,984.12
2023-03-07T04:35:43.595Z,984.14
2023-03-07T04:36:43.564Z,984.16
2023-03-07T04:37:43.535Z,984.16
2023-03-07T04:38:43.556Z,984.07
2023-03-07T04:39:43.530Z,984.10
2023-03-07T04:40:43.494Z,984.13
2023-03-07T04:41:44.546Z,984.13
2023-03-07T04:42:43.515Z,984.12
2023-03-07T04:43:43.475Z,984.12
2023-03-07T04:44:43.477Z,984.15
2023-03-07T04:45:43.462Z,984.08
2023-03-07T04:46:43.442Z,984.05
2023-03-07T04:47:43.432Z,984.10
2023-03-07T04:48:43.422Z,984.06
2023-03-07T04:49:43.403Z,984.02
2023-03-07T04:50:43.411Z,984.10
2023-03-07T04:51:44.172Z,984.13
2023-03-07T04:52:43.352Z,984.07
2023-03-07T04:53:43.374Z,984.08
2023-03-07T04:54:44.371Z,984.04
2023-03-07T04:55:43.358Z,984.03
2023-03-07T04:56:43.360Z,983.99
2023-03-07T04:57:43.310Z,983.94
2023-03-07T04:58:44.307Z,984.02
2023-03-07T04:59:43.289Z,984.02
2023-03-07T05:00:43.278Z,984.03
2023-03-07T05:01:43.390Z,983.94
2023-03-07T05:02:44.270Z,984.00
2023-03-07T05:03:44.248Z,984.04
2023-03-07T05:04:43.266Z,983.98
2023-03-07T05:05:43.238Z,984.03
2023-03-07T05:06:43.229Z,983.93
2023-03-07T05:07:43.220Z,983.95
2023-03-07T05:08:43.198Z,983.93
2023-03-07T05:09:43.210Z,984.01
2023-03-07T05:10:43.161Z,983.99
2023-03-07T05:11:43.198Z,983.93
2023-03-07T05:12:43.188Z,983.93
2023-03-07T05:13:43.153Z,983.98
2023-03-07T05:14:43.161Z,984.00
2023-03-07T05:15:43.165Z,983.90
2023-03-07T05:16:43.144Z,983.94
2023-03-07T05:17:43.091Z,983.95
2023-03-07T05:18:43.101Z,984.03
2023-03-07T05:19:43.107Z,983.93
2023-03-07T05:20:43.109Z,983.97
2023-03-07T05:21:43.053Z,983.90
2023-03-07T05:22:43.044Z,983.94
2023-03-07T05:23:43.019Z,983.94
2023-03-07T05:24:43.023Z,983.92
2023-03-07T05:25:43.630Z,983.96
2023-03-07T05:26:42.996Z,983.92
2023-03-07T05:27:44.026Z,983.96
2023-03-07T05:28:42.974Z,983.89
2023-03-07T05:29:42.959Z,983.92
2023-03-07T05:30:44.007Z,983.87
2023-03-07T05:31:43.936Z,983.86
2023-03-07T05:32:42.930Z,983.88
2023-03-07T05:33:42.957Z,983.88
2023-03-07T05:34:42.930Z,983.82
2023-03-07T05:35:42.986Z,983.87
2023-03-07T05:36:42.935Z,983.82
2023-03-07T05:37:42.896Z,983.76
2023-03-07T05:38:42.895Z,983.81
2023-03-07T05:39:42.864Z,983.84
2023-03-07T05:40:42.877Z,983.80
2023-03-07T05:41:42.855Z,983.89
2023-03-07T05:42:42.875Z,983.85
2023-03-07T05:43:42.831Z,983.85
2023-03-07T05:44:42.806Z,983.84
2023-03-07T05:45:42.785Z,983.96
2023-03-07T05:46:42.795Z,983.99
2023-03-07T05:47:43.790Z,984.01
2023-03-07T05:48:42.768Z,983.99
2023-03-07T05:49:42.778Z,984.01
2023-03-07T05:50:42.772Z,983.99
2023-03-07T05:51:42.770Z,983.97
2023-03-07T05:52:42.730Z,983.94
2023-03-07T05:53:42.727Z,983.96
2023-03-07T05:54:42.714Z,983.89
2023-03-07T05:55:42.697Z,983.96
2023-03-07T05:56:43.690Z,983.96
2023-03-07T05:57:42.673Z,984.03
2023-03-07T05:58:42.667Z,983.92
2023-03-07T05:59:42.659Z,983.96
2023-03-07T06:00:42.655Z,983.86
2023-03-07T06:01:42.647Z,983.92
2023-03-07T06:02:42.689Z,983.84
2023-03-07T06:03:42.632Z,983.83
2023-03-07T06:04:43.609Z,983.85
2023-03-07T06:05:42.594Z,983.88
2023-03-07T06:06:42.585Z,983.81
2023-03-07T06:07:42.556Z,983.88
2023-03-07T06:08:42.583Z,983.87
2023-03-07T06:09:43.521Z,983.80
2023-03-07T06:10:42.534Z,983.94
2023-03-07T06:11:50.634Z,983.93
2023-03-07T06:12:42.510Z,983.85
2023-03-07T06:13:42.532Z,983.97
2023-03-07T06:14:42.482Z,983.90
2023-03-07T06:15:43.531Z,983.92
2023-03-07T06:16:42.485Z,984.02
2023-03-07T06:17:42.470Z,983.98
2023-03-07T06:18:42.470Z,983.93
2023-03-07T06:19:42.435Z,984.01
2023-03-07T06:20:42.456Z,983.93
2023-03-07T06:21:43.453Z,984.01
2023-03-07T06:22:42.431Z,983.94
2023-03-07T06:23:43.426Z,983.97
2023-03-07T06:24:42.413Z,983.91
2023-03-07T06:25:43.370Z,983.89
2023-03-07T06:26:42.367Z,983.95
2023-03-07T06:27:42.343Z,983.94
2023-03-07T06:28:43.343Z,983.92
2023-03-07T06:29:42.317Z,983.88
2023-03-07T06:30:43.305Z,983.99
2023-03-07T06:31:43.376Z,983.89
2023-03-07T06:32:42.337Z,983.94
2023-03-07T06:33:43.276Z,983.93
2023-03-07T06:34:42.263Z,983.94
2023-03-07T06:35:42.275Z,983.85
2023-03-07T06:36:42.259Z,983.87
2023-03-07T06:37:42.296Z,983.83
2023-03-07T06:38:42.229Z,983.83
2023-03-07T06:39:42.211Z,983.87
2023-03-07T06:40:43.216Z,983.90
2023-03-07T06:41:42.190Z,983.92
2023-03-07T06:42:42.197Z,983.88
2023-03-07T06:43:42.181Z,983.86
2023-03-07T06:44:43.851Z,983.90
2023-03-07T06:45:43.216Z,983.88
2023-03-07T06:46:42.151Z,983.87
2023-03-07T06:47:42.163Z,983.98
2023-03-07T06:48:42.141Z,983.98
2023-03-07T06:49:43.107Z,983.83
2023-03-07T06:50:42.156Z,983.85
2023-03-07T06:51:42.088Z,983.92
2023-03-07T06:52:42.072Z,983.93
2023-03-07T06:53:42.071Z,983.95
2023-03-07T06:54:42.093Z,983.87
2023-03-07T06:55:43.066Z,983.93
2023-03-07T06:56:45.299Z,983.89
2023-03-07T06:57:43.034Z,983.84
2023-03-07T06:58:42.030Z,983.93
2023-03-07T06:59:42.039Z,983.84
2023-03-07T07:00:42.039Z,983.87
2023-03-07T07:01:42.078Z,983.87
2023-03-07T07:02:42.054Z,983.81
2023-03-07T07:03:41.999Z,983.86
2023-03-07T07:04:41.960Z,983.86
2023-03-07T07:05:41.981Z,983.85
2023-03-07T07:06:41.968Z,983.87
2023-03-07T07:07:41.910Z,983.82
2023-03-07T07:08:42.935Z,983.79
2023-03-07T07:09:41.888Z,983.80
2023-03-07T07:10:41.872Z,983.83
2023-03-07T07:11:41.890Z,983.76
2023-03-07T07:12:41.887Z,983.84
2023-03-07T07:13:41.836Z,983.79
2023-03-07T07:14:42.873Z,983.84
2023-03-07T07:15:41.827Z,983.68
2023-03-07T07:16:41.861Z,983.73
2023-03-07T07:17:41.814Z,983.81
2023-03-07T07:18:41.828Z,983.83
2023-03-07T07:19:41.801Z,983.73
2023-03-07T07:20:41.773Z,983.79
2023-03-07T07:21:41.807Z,983.78
2023-03-07T07:22:41.749Z,983.82
2023-03-07T07:23:41.776Z,983.80
2023-03-07T07:24:41.748Z,983.77
2023-03-07T07:25:42.732Z,983.83
2023-03-07T07:26:41.704Z,983.77
2023-03-07T07:27:41.745Z,983.84
2023-03-07T07:28:41.694Z,983.80
2023-03-07T07:29:41.680Z,983.81
2023-03-07T07:30:41.692Z,983.78
2023-03-07T07:31:41.759Z,983.90
2023-03-07T07:32:41.791Z,983.82
2023-03-07T07:33:41.658Z,983.75
2023-03-07T07:34:41.653Z,983.81
2023-03-07T07:35:41.677Z,983.74
2023-03-07T07:36:41.651Z,983.74
2023-03-07T07:37:41.635Z,983.83
2023-03-07T07:38:41.574Z,983.80
2023-03-07T07:39:41.572Z,983.76
2023-03-07T07:40:42.602Z,983.80
2023-03-07T07:41:41.570Z,983.73
2023-03-07T07:42:41.560Z,983.70
2023-03-07T07:43:41.528Z,983.74
2023-03-07T07:44:41.512Z,983.72
2023-03-07T07:45:41.542Z,983.71
2023-03-07T07:46:41.512Z,983.71
2023-03-07T07:47:41.507Z,983.72
2023-03-07T07:48:41.540Z,983.75
2023-03-07T07:49:41.503Z,983.69
2023-03-07T07:50:41.459Z,983.72
2023-03-07T07:51:42.472Z,983.69
2023-03-07T07:52:41.448Z,983.69
2023-03-07T07:53:41.453Z,983.74
2023-03-07T07:54:41.438Z,983.60
2023-03-07T07:55:41.440Z,983.65
2023-03-07T07:56:42.386Z,983.65
2023-03-07T07:57:41.377Z,983.67
2023-03-07T07:58:41.374Z,983.58
2023-03-07T07:59:41.387Z,983.59
2023-03-07T08:00:41.387Z,983.61
2023-03-07T08:01:41.354Z,983.70
2023-03-07T08:02:41.399Z,983.62
2023-03-07T08:03:42.380Z,983.69
2023-03-07T08:04:41.320Z,983.59
2023-03-07T08:05:41.320Z,983.56
2023-03-07T08:06:41.373Z,983.60
2023-03-07T08:07:41.350Z,983.56
2023-03-07T08:08:41.278Z,983.57
2023-03-07T08:09:41.255Z,983.61
2023-03-07T08:10:41.253Z,983.59
2023-03-07T08:11:41.252Z,983.60
2023-03-07T08:12:41.287Z,983.54
2023-03-07T08:13:41.215Z,983.62
2023-03-07T08:14:41.240Z,983.64
2023-03-07T08:15:42.207Z,983.53
2023-03-07T08:16:42.045Z,983.59
2023-03-07T08:17:41.208Z,983.57
2023-03-07T08:18:41.158Z,983.67
2023-03-07T08:19:41.151Z,983.59
2023-03-07T08:20:42.148Z,983.59
2023-03-07T08:21:41.166Z,983.65
2023-03-07T08:22:42.110Z,983.54
2023-03-07T08:23:42.125Z,983.59
2023-03-07T08:24:41.276Z,983.51
2023-03-07T08:25:41.096Z,983.61
2023-03-07T08:26:41.170Z,983.49
2023-03-07T08:27:41.068Z,983.57
2023-03-07T08:28:41.079Z,983.61
2023-03-07T08:29:41.063Z,983.62
2023-03-07T08:30:41.032Z,983.57
2023-03-07T08:31:41.017Z,983.62
2023-03-07T08:32:41.075Z,983.55
2023-03-07T08:33:41.014Z,983.64
2023-03-07T08:34:41.006Z,983.38
2023-03-07T08:35:41.026Z,983.55
2023-03-07T08:36:40.975Z,983.53
2023-03-07T08:37:40.966Z,983.65
2023-03-07T08:38:40.992Z,983.50
2023-03-07T08:39:40.970Z,983.57
2023-03-07T08:40:40.943Z,983.53
2023-03-07T08:41:40.921Z,983.54
2023-03-07T08:42:41.006Z,983.49
2023-03-07T08:43:41.916Z,983.51
2023-03-07T08:44:40.892Z,983.50
2023-03-07T08:45:40.869Z,983.48
2023-03-07T08:46:40.918Z,983.52
2023-03-07T08:47:41.903Z,983.52
2023-03-07T08:48:41.814Z,983.49
2023-03-07T08:49:40.816Z,983.42
2023-03-07T08:50:40.802Z,983.53
2023-03-07T08:51:40.804Z,983.47
2023-03-07T08:52:41.777Z,983.38
2023-03-07T08:53:40.805Z,983.55
2023-03-07T08:54:40.781Z,983.38
2023-03-07T08:55:40.764Z,983.42
2023-03-07T08:56:40.744Z,983.39
2023-03-07T08:57:40.744Z,983.45
2023-03-07T08:58:40.745Z,983.44
2023-03-07T08:59:41.725Z,983.43
2023-03-07T09:00:40.695Z,983.49
2023-03-07T09:01:41.296Z,983.46
2023-03-07T09:02:40.711Z,983.47
2023-03-07T09:03:40.682Z,983.48
2023-03-07T09:04:40.715Z,983.45
2023-03-07T09:05:41.638Z,983.50
2023-03-07T09:06:40.621Z,983.49
2023-03-07T09:07:40.617Z,983.43
2023-03-07T09:08:40.612Z,983.48
2023-03-07T09:09:40.615Z,983.37
2023-03-07T09:10:40.585Z,983.42
2023-03-07T09:11:40.595Z,983.41
2023-03-07T09:12:40.565Z,983.38
2023-03-07T09:13:51.325Z,983.40
2023-03-07T09:14:41.563Z,983.26
2023-03-07T09:15:40.542Z,983.23
2023-03-07T09:16:40.665Z,983.31
2023-03-07T09:17:40.508Z,983.37
2023-03-07T09:18:40.509Z,983.32
2023-03-07T09:19:40.501Z,983.31
2023-03-07T09:20:41.513Z,983.32
2023-03-07T09:21:40.463Z,983.25
2023-03-07T09:22:40.454Z,983.29
2023-03-07T09:23:40.491Z,983.36
2023-03-07T09:24:40.457Z,983.19
2023-03-07T09:25:41.432Z,983.33
2023-03-07T09:26:40.425Z,983.17
2023-03-07T09:27:40.420Z,983.26
2023-03-07T09:28:40.386Z,983.17
2023-03-07T09:29:40.376Z,983.16
2023-03-07T09:30:40.375Z,983.23
2023-03-07T09:31:40.435Z,983.17
2023-03-07T09:32:40.545Z,983.19
2023-03-07T09:33:41.329Z,983.05
2023-03-07T09:34:40.332Z,983.12
2023-03-07T09:35:40.347Z,983.07
2023-03-07T09:36:40.357Z,983.15
2023-03-07T09:37:41.294Z,983.15
2023-03-07T09:38:40.309Z,983.12
2023-03-07T09:39:41.260Z,983.12
2023-03-07T09:40:40.241Z,983.11
2023-03-07T09:41:40.232Z,983.17
2023-03-07T09:42:41.305Z,983.11
2023-03-07T09:43:40.275Z,983.08
2023-03-07T09:44:40.225Z,983.09
2023-03-07T09:45:41.224Z,983.17
2023-03-07T09:46:40.183Z,983.07
2023-03-07T09:47:41.174Z,983.02
2023-03-07T09:48:40.201Z,983.09
2023-03-07T09:49:40.159Z,983.01
2023-03-07T09:50:40.161Z,983.02
2023-03-07T09:51:40.195Z,983.06
2023-03-07T09:52:40.160Z,983.04
2023-03-07T09:53:40.123Z,983.04
2023-03-07T09:54:40.100Z,983.01
2023-03-07T09:55:40.105Z,983.05
2023-03-07T09:56:40.076Z,983.02
2023-03-07T09:57:40.075Z,983.03
2023-03-07T09:58:41.070Z,983.03
2023-03-07T09:59:41.080Z,983.00
2023-03-07T10:00:40.056Z,983.02
2023-03-07T10:01:40.046Z,982.96
2023-03-07T10:02:41.021Z,982.90
2023-03-07T10:03:40.085Z,982.95
2023-03-07T10:04:40.069Z,982.94
2023-03-07T10:05:39.986Z,982.94
2023-03-07T10:06:41.002Z,982.94
2023-03-07T10:07:40.005Z,982.94
2023-03-07T10:08:39.964Z,982.92
2023-03-07T10:09:39.955Z,982.98
2023-03-07T10:10:40.000Z,982.86
2023-03-07T10:11:39.966Z,982.88
2023-03-07T10:12:40.915Z,982.84
2023-03-07T10:13:39.903Z,982.86
2023-03-07T10:14:39.879Z,982.80
2023-03-07T10:15:39.917Z,982.85
2023-03-07T10:16:39.998Z,982.95
2023-03-07T10:17:40.862Z,982.78
2023-03-07T10:18:40.844Z,982.88
2023-03-07T10:19:39.817Z,982.83
2023-03-07T10:20:39.837Z,982.86
2023-03-07T10:21:39.803Z,982.79
2023-03-07T10:22:40.813Z,982.85
2023-03-07T10:23:39.781Z,982.80
2023-03-07T10:24:39.779Z,982.79
2023-03-07T10:25:39.795Z,982.76
2023-03-07T10:26:39.764Z,982.78
2023-03-07T10:27:39.778Z,982.80
2023-03-07T10:28:42.167Z,982.79
2023-03-07T10:29:39.723Z,982.79
2023-03-07T10:30:40.708Z,982.75
2023-03-07T10:31:39.855Z,982.77
2023-03-07T10:32:39.745Z,982.73
2023-03-07T10:33:40.292Z,982.76
2023-03-07T10:34:39.656Z,982.75
2023-03-07T10:35:39.661Z,982.75
2023-03-07T10:36:39.643Z,982.73
2023-03-07T10:37:39.644Z,982.74
2023-03-07T10:38:39.649Z,982.72
2023-03-07T10:39:39.620Z,982.74
2023-03-07T10:40:39.607Z,982.80
2023-03-07T10:41:39.589Z,982.73
2023-03-07T10:42:39.607Z,982.73
2023-03-07T10:43:39.559Z,982.81
2023-03-07T10:44:39.579Z,982.74
2023-03-07T10:45:39.588Z,982.75
2023-03-07T10:46:46.949Z,982.69
2023-03-07T10:47:40.550Z,982.69
2023-03-07T10:48:39.529Z,982.68
2023-03-07T10:49:39.492Z,982.65
2023-03-07T10:50:39.517Z,982.77
2023-03-07T10:51:39.490Z,982.71
2023-03-07T10:52:39.471Z,982.80
2023-03-07T10:53:39.450Z,982.65
2023-03-07T10:54:40.441Z,982.66
2023-03-07T10:55:40.421Z,982.65
2023-03-07T10:56:40.444Z,982.64
2023-03-07T10:57:40.419Z,982.71
2023-03-07T10:58:39.400Z,982.57
2023-03-07T10:59:39.429Z,982.60
2023-03-07T11:00:40.366Z,982.59
2023-03-07T11:01:39.426Z,982.49
2023-03-07T11:02:39.421Z,982.45
2023-03-07T11:03:51.426Z,982.46
2023-03-07T11:04:40.391Z,982.58
2023-03-07T11:05:39.336Z,982.54
2023-03-07T11:06:39.400Z,982.49
2023-03-07T11:07:39.313Z,982.43
2023-03-07T11:08:39.283Z,982.48
2023-03-07T11:09:39.267Z,982.38
2023-03-07T11:10:39.275Z,982.39
2023-03-07T11:11:39.248Z,982.39
2023-03-07T11:12:40.261Z,982.32
2023-03-07T11:13:40.259Z,982.36
2023-03-07T11:14:39.236Z,982.33
2023-03-07T11:15:40.258Z,982.30
2023-03-07T11:16:39.362Z,982.30
2023-03-07T11:17:39.166Z,982.22
2023-03-07T11:18:40.173Z,982.11
2023-03-07T11:19:39.201Z,982.19
2023-03-07T11:20:39.165Z,982.18
2023-03-07T11:21:39.125Z,982.17
2023-03-07T11:22:39.121Z,982.18
2023-03-07T11:23:39.128Z,982.14
2023-03-07T11:24:39.216Z,982.12
2023-03-07T11:25:39.151Z,982.17
2023-03-07T11:26:39.115Z,982.09
2023-03-07T11:27:39.070Z,982.07
2023-03-07T11:28:39.093Z,982.01
2023-03-07T11:29:39.089Z,981.91
2023-03-07T11:30:39.029Z,981.99
2023-03-07T11:31:39.017Z,981.95
2023-03-07T11:32:39.075Z,981.90
2023-03-07T11:33:49.509Z,982.03
2023-03-07T11:34:40.018Z,981.94
2023-03-07T11:35:39.042Z,981.97
2023-03-07T11:36:38.967Z,982.02
2023-03-07T11:37:38.978Z,981.99
2023-03-07T11:38:38.945Z,981.95
2023-03-07T11:39:38.986Z,981.98
2023-03-07T11:40:39.000Z,981.95
2023-03-07T11:41:38.961Z,981.91
2023-03-07T11:42:38.915Z,981.95
2023-03-07T11:43:38.906Z,981.96
2023-03-07T11:44:39.902Z,982.00
2023-03-07T11:45:38.870Z,981.96
2023-03-07T11:46:39.905Z,981.87
2023-03-07T11:47:38.875Z,981.85
2023-03-07T11:48:38.888Z,981.84
2023-03-07T11:49:38.824Z,981.88
2023-03-07T11:50:39.855Z,981.83
2023-03-07T11:51:38.838Z,981.75
2023-03-07T11:52:38.823Z,981.83
2023-03-07T11:53:38.783Z,981.81
2023-03-07T11:54:39.788Z,981.71
2023-03-07T11:55:38.830Z,981.80
2023-03-07T11:56:38.769Z,981.91
2023-03-07T11:57:38.750Z,981.73
2023-03-07T11:58:39.782Z,981.67
2023-03-07T11:59:39.712Z,981.69
2023-03-07T12:00:38.774Z,981.70
2023-03-07T12:01:38.724Z,981.65
2023-03-07T12:02:38.795Z,981.61
2023-03-07T12:03:38.695Z,981.66
2023-03-07T12:04:38.697Z,981.64
2023-03-07T12:05:38.709Z,981.59
2023-03-07T12:06:38.641Z,981.56
2023-03-07T12:07:39.720Z,981.64
2023-03-07T12:08:38.630Z,981.62
2023-03-07T12:09:38.615Z,981.52
2023-03-07T12:10:39.595Z,981.72
2023-03-07T12:11:38.646Z,981.56
2023-03-07T12:12:38.602Z,981.69
2023-03-07T12:13:38.596Z,981.60
2023-03-07T12:14:38.568Z,981.55
2023-03-07T12:15:38.551Z,981.59
2023-03-07T12:16:38.684Z,981.49
2023-03-07T12:17:39.558Z,981.49
2023-03-07T12:18:38.532Z,981.44
2023-03-07T12:19:38.556Z,981.44
2023-03-07T12:20:38.528Z,981.52
2023-03-07T12:21:38.513Z,981.52
2023-03-07T12:22:38.521Z,981.47
2023-03-07T12:23:38.497Z,981.55
2023-03-07T12:24:38.473Z,981.51
2023-03-07T12:25:38.479Z,981.53
2023-03-07T12:26:38.434Z,981.51
2023-03-07T12:27:38.464Z,981.54
2023-03-07T12:28:38.403Z,981.54